CheckWX is a tool to help pilots better visualize weather data.  It is not intended as a substitute for an official pre-flight weather briefing.

19:00:53 UTC

KDYB METAR
Summerville Airport
Summerville, South Carolina, USA
Current

6 mins ago

KDYB 191855Z AUTO 20004KT 10SM SCT040 SCT048 BKN060 31/23 A2986 RMK AO1 LTG DSNT SE
Observed
Jun-19 @ 18:55 UTC
Wind
  • 200° at 4 KTS
Visibility
10 SM
Flight Rules
VFR
Cloud Levels
  • Scattered at 4,000' AGL
  • Scattered at 4,800' AGL
  • Broken at 6,000' AGL
Temperature
31°C / 88°F
Dewpoint
23°C / 73°F
Heat Index
36°C / 96°F
Humidity
62%
Altimeter
29.86" Hg
Pressure
1011.22 hPa
Previous

26 mins ago

KDYB 191835Z AUTO 22005KT 10SM SCT038 SCT049 BKN075 30/21 A2986 RMK AO1
Observed
Jun-19 @ 18:35 UTC
Wind
  • 220° at 5 KTS
Visibility
10 SM
Flight Rules
VFR
Cloud Levels
  • Scattered at 3,800' AGL
  • Scattered at 4,900' AGL
  • Broken at 7,500' AGL
Temperature
30°C / 86°F
Dewpoint
21°C / 70°F
Heat Index
33°C / 91°F
Humidity
59%
Altimeter
29.86" Hg
Pressure
1011.22 hPa
Previous

46 mins ago

KDYB 191815Z AUTO 24004KT 10SM SCT038 SCT046 SCT120 31/22 A2987 RMK AO1
Observed
Jun-19 @ 18:15 UTC
Wind
  • 240° at 4 KTS
Visibility
10 SM
Flight Rules
VFR
Cloud Levels
  • Scattered at 3,800' AGL
  • Scattered at 4,600' AGL
  • Scattered at 12,000' AGL
Temperature
31°C / 88°F
Dewpoint
22°C / 72°F
Heat Index
35°C / 95°F
Humidity
59%
Altimeter
29.87" Hg
Pressure
1011.52 hPa